Currently 63°F in Wildomar, California, USA
63°F
63°F / 45°F
calm
0.00"
Thursday, March 23, 2017 11:24 AM PDT

Wildomar, California Weather Summary
Last 36 Hours

Temperature Winds Hourly Humidity Dewpoint
Time Report Norm Report Norm Max Gusts Precip. Rpt. Norm Rpt. Norm Pressure
1,2Thu 11:24 AM  63.3°F  66°F  calm  2 mph  none  0.00"  55%  50%  46°F  46°F  30.13"
Thu 11:00 AM  61.0°F  64°F  calm  2 mph  none  0.00"  62%  54%  47°F  47°F  30.13"
Thu 10:00 AM  58.9°F  60°F  calm  1 mph  none  0.00"  66%  64%  47°F  47°F  30.10"
Thu 09:00 AM  54.5°F  55°F  calm  1 mph  none  0.00"  77%  78%  47°F  48°F  30.10"
Thu 08:00 AM  47.5°F  49°F  calm  calm  none  0.00"  93%  89%  46°F  45°F  30.09"
3Thu 07:29 AM  45.3°F  47°F  calm  calm  none  ----  92%  89%  43°F  44°F  30.08"
Thu 07:00 AM  46.1°F  47°F  calm  calm  none  0.00"  90%  89%  43°F  44°F  30.06"
Thu 06:00 AM  48.4°F  47°F  calm  calm  none  0.00"  90%  88%  46°F  44°F  30.05"
Thu 05:00 AM  47.2°F  48°F  calm  calm  none  0.00"  87%  87%  43°F  44°F  30.03"
Thu 04:00 AM  50.0°F  48°F  calm  calm  none  0.00"  84%  86%  45°F  44°F  30.02"
Thu 03:00 AM  50.4°F  49°F  calm  calm  none  0.00"  84%  85%  46°F  44°F  30.03"
Thu 02:00 AM  50.9°F  49°F  calm  calm  none  0.00"  81%  84%  45°F  44°F  30.03"
Thu 01:00 AM  51.3°F  50°F  calm  calm  none  0.00"  83%  82%  46°F  45°F  30.02"
Thu 12:00 AM  53.1°F  51°F  calm  calm  none  0.00"  79%  80%  46°F  45°F  30.03"
Wed 11:00 PM  53.3°F  52°F  calm  1 mph  none  0.00"  77%  78%  46°F  45°F  30.02"
Wed 10:00 PM  54.1°F  54°F  calm  1 mph  none  0.00"  75%  75%  46°F  46°F  30.02"
Wed 09:00 PM  54.4°F  56°F  calm  1 mph  none  0.00"  74%  71%  46°F  46°F  30.01"
Wed 08:00 PM  54.7°F  59°F  calm  1 mph  none  0.00"  74%  63%  46°F  46°F  29.97"
Wed 07:00 PM  55.6°F  64°F  calm  2 mph  none  0.00"  71%  54%  46°F  46°F  29.95"
Wed 06:00 PM  58.7°F  69°F  calm  4 mph  none  0.00"  65%  43%  47°F  45°F  29.93"
Wed 05:00 PM  61.9°F  72°F  calm  4 mph  none  0.00"  66%  39%  50°F  45°F  29.92"
Wed 04:00 PM  70.5°F  74°F  calm  4 mph  none  0.00"  48%  35%  49°F  44°F  29.94"
Wed 03:00 PM  69.2°F  74°F  calm  3 mph  none  0.00"  51%  35%  50°F  44°F  29.96"
Wed 02:00 PM  65.6°F  74°F  calm  3 mph  none  0.00"  61%  36%  51°F  44°F  29.99"
Wed 01:00 PM  65.7°F  72°F  calm  3 mph  none  0.00"  57%  38%  50°F  44°F  30.02"
Wed 12:00 PM  68.3°F  69°F  calm  3 mph  none  0.00"  50%  44%  48°F  45°F  30.03"
Wed 11:00 AM  64.9°F  65°F  calm  2 mph  none  0.01"  67%  53%  53°F  47°F  30.04"
Wed 10:00 AM  60.2°F  60°F  calm  1 mph  none  0.00"  82%  63%  54°F  47°F  30.05"
Wed 09:00 AM  58.3°F  54°F  calm  1 mph  none  0.00"  95%  78%  57°F  48°F  30.05"
Wed 08:00 AM  56.1°F  48°F  calm  calm  none  0.00"  96%  89%  55°F  45°F  30.05"
Wed 07:00 AM  55.0°F  47°F  calm  calm  none  0.00"  96%  89%  54°F  43°F  30.05"
Wed 06:00 AM  54.8°F  47°F  calm  calm  none  0.00"  96%  88%  54°F  44°F  30.04"
Wed 05:00 AM  54.5°F  47°F  calm  calm  none  0.00"  96%  88%  53°F  44°F  30.03"
Wed 04:00 AM  54.6°F  48°F  calm  calm  none  0.00"  95%  87%  53°F  44°F  30.03"
Wed 03:00 AM  55.5°F  48°F  calm  calm  none  0.00"  95%  86%  54°F  44°F  30.05"
Wed 02:00 AM  55.7°F  49°F  calm  calm  none  0.00"  95%  84%  54°F  44°F  30.06"
Wed 01:00 AM  55.6°F  50°F  calm  calm  none  0.00"  94%  82%  54°F  45°F  30.07"
Wed 12:00 AM  55.7°F  51°F  calm  calm  none  0.00"  94%  80%  54°F  45°F  30.07"

  1. Current weather data. No green row appears if the current weather data is also the high or low for the current day.
  2. High temperature for the current day.
  3. Low temperature for the current day.

The Wildomar, California weather pages are a service of WeatherCurrents. Wildomar is located southwestern Riverside County, California, north of Murrieta and south of Lake Elsinore.
Copyright ©Thu Mar 23 11:24:58 PDT 2017  WeatherCurrents. All rights reserved. - Submit questions and comments - Privacy Policy

This page automatically refreshes every 10 minutes.